Map

Track Data

SID SEASON NUMBER BASIN SUBBASIN NAME ISO_TIME NATURE LAT LON WMO_WIND WMO_PRES WMO_AGENCY TRACK_TYPE DIST2LAND LANDFALL IFLAG USA_AGENCY USA_ATCF_ID USA_LAT USA_LON USA_RECORD USA_STATUS USA_WIND USA_PRES USA_SSHS USA_R34_NE USA_R34_SE USA_R34_SW USA_R34_NW USA_R50_NE USA_R50_SE USA_R50_SW USA_R50_NW USA_R64_NE USA_R64_SE USA_R64_SW USA_R64_NW USA_POCI USA_ROCI USA_RMW USA_EYE TOKYO_LAT TOKYO_LON TOKYO_GRADE TOKYO_WIND TOKYO_PRES TOKYO_R50_DIR TOKYO_R50_LONG TOKYO_R50_SHORT TOKYO_R30_DIR TOKYO_R30_LONG TOKYO_R30_SHORT TOKYO_LAND CMA_LAT CMA_LON CMA_CAT CMA_WIND CMA_PRES HKO_LAT HKO_LON HKO_CAT HKO_WIND HKO_PRES NEWDELHI_LAT NEWDELHI_LON NEWDELHI_GRADE NEWDELHI_WIND NEWDELHI_PRES NEWDELHI_CI NEWDELHI_DP NEWDELHI_POCI REUNION_LAT REUNION_LON REUNION_TYPE REUNION_WIND REUNION_PRES REUNION_TNUM REUNION_CI REUNION_RMW REUNION_R34_NE REUNION_R34_SE REUNION_R34_SW REUNION_R34_NW REUNION_R50_NE REUNION_R50_SE REUNION_R50_SW REUNION_R50_NW REUNION_R64_NE REUNION_R64_SE REUNION_R64_SW REUNION_R64_NW BOM_LAT BOM_LON BOM_TYPE BOM_WIND BOM_PRES BOM_TNUM BOM_CI BOM_RMW BOM_R34_NE BOM_R34_SE BOM_R34_SW BOM_R34_NW BOM_R50_NE BOM_R50_SE BOM_R50_SW BOM_R50_NW BOM_R64_NE BOM_R64_SE BOM_R64_SW BOM_R64_NW BOM_ROCI BOM_POCI BOM_EYE BOM_POS_METHOD BOM_PRES_METHOD NADI_LAT NADI_LON NADI_CAT NADI_WIND NADI_PRES WELLINGTON_LAT WELLINGTON_LON WELLINGTON_WIND WELLINGTON_PRES DS824_LAT DS824_LON DS824_STAGE DS824_WIND DS824_PRES TD9636_LAT TD9636_LON TD9636_STAGE TD9636_WIND TD9636_PRES TD9635_LAT TD9635_LON TD9635_WIND TD9635_PRES TD9635_ROCI NEUMANN_LAT NEUMANN_LON NEUMANN_CLASS NEUMANN_WIND NEUMANN_PRES MLC_LAT MLC_LON MLC_CLASS MLC_WIND MLC_PRES USA_GUST BOM_GUST BOM_GUST_PER REUNION_GUST REUNION_GUST_PER USA_SEAHGT USA_SEARAD_NE USA_SEARAD_SE USA_SEARAD_SW USA_SEARAD_NW STORM_SPEED STORM_DIR
1884032S14078 1884 3 SI MM NOT_NAMED 1884-02-01 06:00:00 NR -13.7000 78.1000 reunion main 2213 2213 _____O________ -1 -13.7000 78.1000 99 9.90000 6 254
1884032S14078 1884 3 SI MM NOT_NAMED 1884-02-01 09:00:00 NR -13.7772 77.8170 main 2228 2211 _____P________ -1 -13.7772 77.8170 99 6 254
1884032S14078 1884 3 SI MM NOT_NAMED 1884-02-01 12:00:00 NR -13.8612 77.5253 main 2211 2176 _____P________ -1 -13.8612 77.5253 99 6 253
1884032S14078 1884 3 SI MM NOT_NAMED 1884-02-01 15:00:00 NR -13.9591 77.2162 main 2176 2142 _____P________ -1 -13.9591 77.2162 99 7 251
1884032S14078 1884 3 SI MM NOT_NAMED 1884-02-01 18:00:00 NR -14.0777 76.8810 main 2142 2098 _____P________ -1 -14.0777 76.8810 99 7 249
1884032S14078 1884 3 SI MM NOT_NAMED 1884-02-01 21:00:00 NR -14.2243 76.5108 main 2098 2050 _____P________ -1 -14.2243 76.5108 99 8 247
1884032S14078 1884 3 SI MM NOT_NAMED 1884-02-02 00:00:00 NR -14.4056 76.0968 main 2050 2001 _____P________ -1 -14.4056 76.0968 99 9 245
1884032S14078 1884 3 SI MM NOT_NAMED 1884-02-02 03:00:00 NR -14.6286 75.6296 main 1991 1929 _____P________ -1 -14.6286 75.6296 99 11 243
1884032S14078 1884 3 SI MM NOT_NAMED 1884-02-02 06:00:00 NR -14.9000 75.1000 reunion main 1929 1857 _____O________ -1 -14.9000 75.1000 99 9.90000 12 241
1884032S14078 1884 3 SI MM NOT_NAMED 1884-02-02 09:00:00 NR -15.2239 74.5037 main 1857 1781 _____P________ -1 -15.2239 74.5037 99 14 240
1884032S14078 1884 3 SI MM NOT_NAMED 1884-02-02 12:00:00 NR -15.5940 73.8574 main 1781 1696 _____P________ -1 -15.5940 73.8574 99 15 239
1884032S14078 1884 3 SI MM NOT_NAMED 1884-02-02 15:00:00 NR -16.0012 73.1834 main 1696 1611 _____P________ -1 -16.0012 73.1834 99 16 237
1884032S14078 1884 3 SI MM NOT_NAMED 1884-02-02 18:00:00 NR -16.4369 72.5044 main 1611 1533 _____P________ -1 -16.4369 72.5044 99 16 235
1884032S14078 1884 3 SI MM NOT_NAMED 1884-02-02 21:00:00 NR -16.8927 71.8431 main 1523 1459 _____P________ -1 -16.8927 71.8431 99 15 233
1884032S14078 1884 3 SI MM NOT_NAMED 1884-02-03 00:00:00 NR -17.3603 71.2230 main 1446 1384 _____P________ -1 -17.3603 71.2230 99 15 230
1884032S14078 1884 3 SI MM NOT_NAMED 1884-02-03 03:00:00 NR -17.8320 70.6673 main 1384 1320 _____P________ -1 -17.8320 70.6673 99 14 226
1884032S14078 1884 3 SI MM NOT_NAMED 1884-02-03 06:00:00 NR -18.3000 70.2000 reunion main 1320 1280 _____O________ -1 -18.3000 70.2000 99 9.90000 12 221
1884032S14078 1884 3 SI MM NOT_NAMED 1884-02-03 09:00:00 NR -18.7183 69.8595 main 1280 1242 _____P________ -1 -18.7183 69.8595 99 10 214
1884032S14078 1884 3 SI MM NOT_NAMED 1884-02-03 12:00:00 NR -19.1384 69.5994 main 1242 1215 _____P________ -1 -19.1384 69.5994 99 9 207
1884032S14078 1884 3 SI MM NOT_NAMED 1884-02-03 15:00:00 NR -19.5621 69.4122 main 1214 1200 _____P________ -1 -19.5621 69.4122 99 9 199
1884032S14078 1884 3 SI MM NOT_NAMED 1884-02-03 18:00:00 NR -19.9915 69.2901 main 1200 1188 _____P________ -1 -19.9915 69.2901 99 9 191
1884032S14078 1884 3 SI MM NOT_NAMED 1884-02-03 21:00:00 NR -20.4283 69.2256 main 1188 1187 _____P________ -1 -20.4283 69.2256 99 9 185
1884032S14078 1884 3 SI MM NOT_NAMED 1884-02-04 00:00:00 NR -20.8742 69.2109 main 1188 1188 _____P________ -1 -20.8742 69.2109 99 9 0
1884032S14078 1884 3 SI MM NOT_NAMED 1884-02-04 03:00:00 NR -21.3309 69.2383 main 1189 1189 _____P________ -1 -21.3309 69.2383 99 9 175
1884032S14078 1884 3 SI MM NOT_NAMED 1884-02-04 06:00:00 NR -21.8000 69.3000 reunion main 1204 1204 _____O________ -1 -21.8000 69.3000 99 9.90000 10 175
1884032S14078 1884 3 SI MM NOT_NAMED 1884-02-04 09:00:00 NR -22.2939 69.3340 main 1211 1211 _____P________ -1 -22.2939 69.3340 99 10 174
1884032S14078 1884 3 SI MM NOT_NAMED 1884-02-04 12:00:00 NR -22.8017 69.4106 main 1231 1231 _____P________ -1 -22.8017 69.4106 99 10 170
1884032S14078 1884 3 SI MM NOT_NAMED 1884-02-04 15:00:00 NR -23.3192 69.5252 main 1252 1252 _____P________ -1 -23.3192 69.5252 99 11 167
1884032S14078 1884 3 SI MM NOT_NAMED 1884-02-04 18:00:00 NR -23.8420 69.6731 main 1286 1286 _____P________ -1 -23.8420 69.6731 99 11 164
1884032S14078 1884 3 SI MM NOT_NAMED 1884-02-04 21:00:00 NR -24.3658 69.8495 main 1315 1315 _____P________ -1 -24.3658 69.8495 99 11 162
1884032S14078 1884 3 SI MM NOT_NAMED 1884-02-05 00:00:00 NR -24.8862 70.0494 main 1352 1352 _____P________ -1 -24.8862 70.0494 99 11 160
1884032S14078 1884 3 SI MM NOT_NAMED 1884-02-05 03:00:00 NR -25.3991 70.2680 main 1400 1400 _____P________ -1 -25.3991 70.2680 99 11 158
1884032S14078 1884 3 SI MM NOT_NAMED 1884-02-05 06:00:00 NR -25.9000 70.5000 reunion main 1439 1439 _____O________ -1 -25.9000 70.5000 99 9.90000 11 158
1884032S14078 1884 3 SI MM NOT_NAMED 1884-02-05 09:00:00 NR -26.4157 70.7357 main 1479 1479 _____P________ -1 -26.4157 70.7357 99 11 157
1884032S14078 1884 3 SI MM NOT_NAMED 1884-02-05 12:00:00 NR -26.9260 70.9925 main 1529 1529 _____P________ -1 -26.9260 70.9925 99 11 155
1884032S14078 1884 3 SI MM NOT_NAMED 1884-02-05 15:00:00 NR -27.4242 71.2640 main 1580 1580 _____P________ -1 -27.4242 71.2640 99 11 153
1884032S14078 1884 3 SI MM NOT_NAMED 1884-02-05 18:00:00 NR -27.9037 71.5435 main 1623 1623 _____P________ -1 -27.9037 71.5435 99 11 152
1884032S14078 1884 3 SI MM NOT_NAMED 1884-02-05 21:00:00 NR -28.3576 71.8241 main 1675 1675 _____P________ -1 -28.3576 71.8241 99 10 151
1884032S14078 1884 3 SI MM NOT_NAMED 1884-02-06 00:00:00 NR -28.7794 72.0986 main 1722 1722 _____P________ -1 -28.7794 72.0986 99 9 150
1884032S14078 1884 3 SI MM NOT_NAMED 1884-02-06 03:00:00 NR -29.1624 72.3597 main 1769 1769 _____P________ -1 -29.1624 72.3597 99 8 149
1884032S14078 1884 3 SI MM NOT_NAMED 1884-02-06 06:00:00 NR -29.5000 72.6000 reunion main 1803 1803 _____O________ -1 -29.5000 72.6000 99 9.90000 7 148
1884032S14078 1884 3 SI MM NOT_NAMED 1884-02-06 09:00:00 NR -29.7880 72.8137 main 1837 1837 _____P________ -1 -29.7880 72.8137 99 6 147
1884032S14078 1884 3 SI MM NOT_NAMED 1884-02-06 12:00:00 NR -30.0307 73.0021 main 1865 1865 _____P________ -1 -30.0307 73.0021 99 5 146
1884032S14078 1884 3 SI MM NOT_NAMED 1884-02-06 15:00:00 NR -30.2346 73.1688 main 1893 1893 _____P________ -1 -30.2346 73.1688 99 5 144
1884032S14078 1884 3 SI MM NOT_NAMED 1884-02-06 18:00:00 NR -30.4063 73.3171 main 1913 1913 _____P________ -1 -30.4063 73.3171 99 4 143
1884032S14078 1884 3 SI MM NOT_NAMED 1884-02-06 21:00:00 NR -30.5523 73.4507 main 1941 1941 _____P________ -1 -30.5523 73.4507 99 4 141
1884032S14078 1884 3 SI MM NOT_NAMED 1884-02-07 00:00:00 NR -30.6789 73.5732 main 1955 1955 _____P________ -1 -30.6789 73.5732 99 3 139
1884032S14078 1884 3 SI MM NOT_NAMED 1884-02-07 03:00:00 NR -30.7927 73.6884 main 1969 1969 _____P________ -1 -30.7927 73.6884 99 3 139
1884032S14078 1884 3 SI MM NOT_NAMED 1884-02-07 06:00:00 NR -30.9000 73.8000 reunion main 1983 _____O________ -1 -30.9000 73.8000 99 9.90000 3 139

About IBTrACS Database

This database is a web-friendly format of International Best Track Archive for Climate Stewardship (IBTrACS), a global best track data archive curated by NOAA dating back to 1842.

Updated: 2021-10-25